Terminal Aerodrome Forecast
Issued by NWS

Home | Current Version | Previous Version | Text Only | Print | Product List | Glossary On
Versions: 1 2 3 4 5 6 7 8 9 10 11 12 13 14 15 16 17 18 19 20 21 22 23 24 25 26 27 28 29 30 31 32 33 34 35 36 37 38 39 40 41 42 43 44 45 46
000
FTUS43 KDMX 252345
TAFOTM
TAF
KOTM 252345Z 2600/2624 18004KT P6SM FEW080 SCT200
     FM260600 13008KT P6SM SCT040 OVC120
     FM261200 10010KT P6SM OVC040
     FM261400 13010KT 4SM -SN SCT014 OVC020
     FM261900 04012KT 2SM -SN OVC012
     FM262200 36009KT 5SM -SN OVC020=

USA.gov is the U.S. government's official web portal to all federal, state and local government web resources and services.